Time;durP1;ratioP1;P1;durP2;ratioP2;P2;SDS_P1;SDS_P2;PMS_P1;PMS_P2;Temp;Humidity;BMP_temperature;BMP_pressure;BME280_temperature;BME280_humidity;BME280_pressure;Samples;Min_cycle;Max_cycle;Signal;HPM_P1;HPM_P2
2021/09/15 00:01:52;;;;;;;23.50;14.40;;;12.40;99.90;;;;;;4416564;28;656571;-69
2021/09/15 00:04:39;;;;;;;22.70;13.97;;;12.30;99.90;;;;;;4435436;28;657813;-69
2021/09/15 00:07:27;;;;;;;25.00;14.23;;;12.30;99.90;;;;;;4415609;28;656373;-69
2021/09/15 00:10:14;;;;;;;21.20;13.00;;;12.30;99.90;;;;;;4425464;28;658240;-69
2021/09/15 00:13:03;;;;;;;21.97;13.00;;;12.30;99.90;;;;;;4398899;28;656938;-69
2021/09/15 00:15:51;;;;;;;21.23;13.77;;;12.30;99.90;;;;;;4416700;28;656735;-69
2021/09/15 00:18:38;;;;;;;22.83;14.27;;;12.30;99.90;;;;;;4388255;28;657575;-69
2021/09/15 00:21:26;;;;;;;19.47;13.43;;;12.30;99.90;;;;;;4416681;28;656947;-68
2021/09/15 00:24:14;;;;;;;19.87;12.87;;;12.20;99.90;;;;;;4393863;28;657842;-69
2021/09/15 00:27:01;;;;;;;18.70;12.03;;;12.20;99.90;;;;;;4416473;28;656455;-69
2021/09/15 00:29:50;;;;;;;20.83;13.43;;;12.20;99.90;;;;;;4393705;28;657066;-69
2021/09/15 00:32:37;;;;;;;21.17;12.70;;;12.20;99.90;;;;;;4397345;28;656693;-69
2021/09/15 00:35:25;;;;;;;22.27;13.30;;;12.10;99.90;;;;;;4419488;28;656762;-69
2021/09/15 00:38:13;;;;;;;19.10;13.23;;;12.10;99.90;;;;;;4397267;28;656591;-69
2021/09/15 00:41:00;;;;;;;20.70;13.80;;;12.10;99.90;;;;;;4416187;28;657041;-69
2021/09/15 00:44:00;;;;;;;28.17;14.20;;;12.10;99.90;;;;;;4397079;28;656449;-69
2021/09/15 00:46:51;;;;;;;26.03;14.43;;;12.00;99.90;;;;;;4370460;28;657290;-69
2021/09/15 00:49:38;;;;;;;23.43;14.67;;;12.00;99.90;;;;;;4383758;28;656451;-68
2021/09/15 00:52:26;;;;;;;28.97;14.23;;;12.10;99.90;;;;;;4412256;28;656834;-68
2021/09/15 00:55:13;;;;;;;26.23;14.40;;;12.00;99.90;;;;;;4393502;28;657074;-69
2021/09/15 00:58:01;;;;;;;23.67;13.90;;;12.00;99.90;;;;;;4412071;28;656945;-69
2021/09/15 01:00:48;;;;;;;25.10;14.80;;;12.00;99.90;;;;;;4388243;28;657913;-69
2021/09/15 01:03:38;;;;;;;25.57;14.27;;;12.00;99.90;;;;;;4415545;28;656656;-69
2021/09/15 01:06:25;;;;;;;24.33;13.73;;;12.00;99.90;;;;;;4393226;28;656753;-69
2021/09/15 01:09:13;;;;;;;21.40;14.63;;;11.90;99.90;;;;;;4396584;28;656524;-69
2021/09/15 01:12:00;;;;;;;25.40;14.43;;;11.90;99.90;;;;;;4415522;28;657232;-69
2021/09/15 01:14:48;;;;;;;21.90;13.68;;;11.90;99.90;;;;;;4397939;28;656432;-68
2021/09/15 01:17:35;;;;;;;24.00;14.03;;;11.90;99.90;;;;;;4416547;28;656419;-69
2021/09/15 01:20:24;;;;;;;24.13;14.18;;;11.90;99.90;;;;;;4397914;28;656452;-69
2021/09/15 01:23:13;;;;;;;22.07;14.33;;;11.90;99.90;;;;;;4397364;28;656355;-70
2021/09/15 01:26:01;;;;;;;22.37;14.03;;;11.90;99.90;;;;;;4416349;28;656902;-69
2021/09/15 01:28:48;;;;;;;23.07;14.20;;;11.80;99.90;;;;;;4393541;28;657604;-69
2021/09/15 01:31:36;;;;;;;20.87;13.27;;;11.80;99.90;;;;;;4416702;28;656370;-69
2021/09/15 01:34:24;;;;;;;19.03;13.00;;;11.70;99.90;;;;;;4393681;28;657879;-69
2021/09/15 01:37:13;;;;;;;23.67;13.73;;;11.80;99.90;;;;;;4416003;28;656699;-69
2021/09/15 01:40:02;;;;;;;20.77;13.03;;;11.70;99.90;;;;;;4393408;28;657302;-69
2021/09/15 01:42:49;;;;;;;19.17;13.20;;;11.70;99.90;;;;;;4393331;28;657285;-69
2021/09/15 01:45:37;;;;;;;22.50;13.90;;;11.60;99.90;;;;;;4397149;28;656967;-69
2021/09/15 01:48:25;;;;;;;21.53;13.93;;;11.60;99.90;;;;;;4418401;28;656377;-69
2021/09/15 01:51:12;;;;;;;20.50;12.97;;;11.60;99.90;;;;;;4397190;28;656756;-70
2021/09/15 01:53:59;;;;;;;20.37;12.50;;;11.60;99.90;;;;;;4417909;28;657550;-69
2021/09/15 01:56:48;;;;;;;25.47;13.30;;;11.60;99.90;;;;;;4397125;28;656507;-69
2021/09/15 01:59:36;;;;;;;23.93;14.37;;;11.60;99.90;;;;;;4415963;28;656831;-69
2021/09/15 02:02:23;;;;;;;24.83;13.33;;;11.60;99.90;;;;;;4392575;28;657585;-69
2021/09/15 02:05:11;;;;;;;24.43;13.40;;;11.50;99.90;;;;;;4416102;28;656572;-69
2021/09/15 02:07:59;;;;;;;19.93;12.93;;;11.50;99.90;;;;;;4393170;28;657422;-69
2021/09/15 02:10:46;;;;;;;22.40;13.13;;;11.40;99.90;;;;;;4415116;28;657114;-69
2021/09/15 02:13:36;;;;;;;20.13;13.60;;;11.40;99.90;;;;;;4394622;28;657437;-69
2021/09/15 02:16:24;;;;;;;22.10;14.10;;;11.40;99.90;;;;;;4396244;28;657697;-69
2021/09/15 02:19:12;;;;;;;21.40;13.77;;;11.40;99.90;;;;;;4406882;28;656967;-69
2021/09/15 02:21:59;;;;;;;21.97;13.80;;;11.30;99.90;;;;;;4414534;28;656942;-69
2021/09/15 02:24:47;;;;;;;20.07;13.47;;;11.30;99.90;;;;;;4396017;28;656898;-69
2021/09/15 02:27:34;;;;;;;28.53;13.93;;;11.30;99.90;;;;;;4418795;28;657259;-69
2021/09/15 02:30:23;;;;;;;22.13;13.17;;;11.30;99.90;;;;;;4395893;28;656648;-69
2021/09/15 02:33:11;;;;;;;23.23;14.17;;;11.30;99.90;;;;;;4414609;28;656958;-69
2021/09/15 02:35:59;;;;;;;18.87;12.27;;;11.30;99.90;;;;;;4392011;28;657378;-69
2021/09/15 02:38:46;;;;;;;24.33;14.67;;;11.30;99.90;;;;;;4418723;28;656458;-69
2021/09/15 02:41:34;;;;;;;33.93;18.27;;;11.20;99.90;;;;;;4391908;28;657520;-69
2021/09/15 02:44:22;;;;;;;41.07;20.90;;;11.20;99.90;;;;;;4409710;28;656339;-69
2021/09/15 02:47:11;;;;;;;33.13;17.67;;;11.20;99.90;;;;;;4414447;28;657048;-69
2021/09/15 02:49:58;;;;;;;54.50;23.10;;;11.20;99.90;;;;;;4391652;28;657478;-69
2021/09/15 02:52:46;;;;;;;47.75;21.58;;;11.20;99.90;;;;;;4409638;28;656593;-69
2021/09/15 02:55:33;;;;;;;33.67;17.77;;;11.20;99.90;;;;;;4391660;28;657076;-69
2021/09/15 02:58:21;;;;;;;26.70;15.23;;;11.20;99.90;;;;;;4414371;28;657349;-69
2021/09/15 03:01:09;;;;;;;25.63;15.53;;;11.20;99.90;;;;;;4391898;28;657670;-69
2021/09/15 03:03:58;;;;;;;28.33;15.80;;;11.20;99.90;;;;;;4402791;28;656494;-70
2021/09/15 03:06:46;;;;;;;24.73;15.97;;;11.20;99.90;;;;;;4414041;28;657339;-69
2021/09/15 03:09:33;;;;;;;26.20;15.30;;;11.20;99.90;;;;;;4395729;28;657716;-69
2021/09/15 03:12:21;;;;;;;29.30;15.73;;;11.20;99.90;;;;;;4415246;28;656676;-69
2021/09/15 03:15:09;;;;;;;24.90;15.07;;;11.20;99.90;;;;;;4399585;28;657762;-69
2021/09/15 03:17:57;;;;;;;32.40;15.00;;;11.20;99.90;;;;;;4399681;28;656830;-69
2021/09/15 03:20:46;;;;;;;27.63;14.77;;;11.20;99.90;;;;;;4422912;28;657112;-69
2021/09/15 03:23:33;;;;;;;27.13;15.43;;;11.20;99.90;;;;;;4395823;28;657496;-69
2021/09/15 03:26:21;;;;;;;25.33;15.33;;;11.10;99.90;;;;;;4418499;28;656773;-69
2021/09/15 03:29:08;;;;;;;24.73;15.40;;;11.10;99.90;;;;;;4395575;28;657711;-70
2021/09/15 03:31:56;;;;;;;25.70;16.33;;;11.20;99.90;;;;;;4418526;28;656472;-69
2021/09/15 03:34:43;;;;;;;25.60;15.47;;;11.20;99.90;;;;;;4395528;28;657510;-69
2021/09/15 03:37:32;;;;;;;25.03;15.40;;;11.20;99.90;;;;;;4411225;28;656833;-69
2021/09/15 03:40:20;;;;;;;24.50;15.23;;;11.20;99.90;;;;;;4399407;28;657026;-69
2021/09/15 03:43:08;;;;;;;29.40;15.07;;;11.10;99.90;;;;;;4399156;28;656701;-69
2021/09/15 03:45:55;;;;;;;28.00;15.30;;;11.10;99.90;;;;;;4418421;28;656608;-69
2021/09/15 03:48:43;;;;;;;26.17;15.20;;;11.00;99.90;;;;;;4399345;28;656990;-69
2021/09/15 03:51:31;;;;;;;23.50;15.47;;;11.00;99.90;;;;;;4418031;28;656375;-69
2021/09/15 03:54:20;;;;;;;23.20;15.30;;;11.00;99.90;;;;;;4399030;28;657307;-69
2021/09/15 03:57:08;;;;;;;24.80;14.63;;;11.10;99.90;;;;;;4399247;28;656525;-69
2021/09/15 04:00:00;;;;;;;25.63;15.43;;;11.10;99.90;;;;;;4421974;28;656176;-69
2021/09/15 04:02:48;;;;;;;22.67;14.93;;;11.10;99.90;;;;;;4373021;28;656892;-69
2021/09/15 04:05:36;;;;;;;24.60;15.00;;;11.10;99.90;;;;;;4417761;28;656826;-69
2021/09/15 04:08:26;;;;;;;23.03;14.87;;;11.00;99.90;;;;;;4398843;28;657828;-69
2021/09/15 04:11:16;;;;;;;28.70;13.83;;;11.10;99.90;;;;;;4398330;28;656415;-69
2021/09/15 04:14:04;;;;;;;23.23;14.33;;;11.10;99.90;;;;;;4393952;28;657054;-69
2021/09/15 04:16:52;;;;;;;19.57;13.07;;;11.10;99.90;;;;;;4397956;28;656805;-69
2021/09/15 04:19:39;;;;;;;18.10;13.13;;;11.10;99.90;;;;;;4416579;28;657967;-69
2021/09/15 04:22:27;;;;;;;19.08;13.05;;;11.00;99.90;;;;;;4397725;28;656712;-69
2021/09/15 04:31:27;;;;;;;20.43;13.93;;;10.90;99.90;;;;;;4393934;28;656729;-69
2021/09/15 04:34:14;;;;;;;24.17;14.03;;;11.00;99.90;;;;;;4393784;28;657191;-69
2021/09/15 04:37:02;;;;;;;20.98;14.48;;;11.00;99.90;;;;;;4397672;28;657296;-69
2021/09/15 04:39:50;;;;;;;24.23;15.40;;;11.10;99.90;;;;;;4420333;28;657306;-69
2021/09/15 04:42:37;;;;;;;27.03;15.10;;;11.10;99.90;;;;;;4397354;28;656754;-69
2021/09/15 04:45:27;;;;;;;21.93;14.53;;;11.20;99.90;;;;;;4416069;28;656951;-69
2021/09/15 04:48:14;;;;;;;22.13;13.73;;;11.20;99.90;;;;;;4393498;28;657087;-69
2021/09/15 04:51:02;;;;;;;21.27;13.87;;;11.20;99.90;;;;;;4400023;28;656742;-69
2021/09/15 04:53:50;;;;;;;22.37;14.13;;;11.20;99.90;;;;;;4415337;28;657571;-69
2021/09/15 04:56:37;;;;;;;21.40;13.37;;;11.30;99.90;;;;;;4397328;28;656895;-69
2021/09/15 04:59:25;;;;;;;23.13;13.80;;;11.30;99.90;;;;;;4415874;28;656449;-69
2021/09/15 05:02:14;;;;;;;22.97;14.60;;;11.30;99.90;;;;;;4397127;28;656577;-69
2021/09/15 05:05:02;;;;;;;23.20;14.80;;;11.40;99.90;;;;;;4406122;28;656431;-69
2021/09/15 05:07:50;;;;;;;23.87;16.23;;;11.50;99.90;;;;;;4418602;28;656583;-69
2021/09/15 05:10:37;;;;;;;26.33;16.23;;;11.60;99.90;;;;;;4397444;28;656371;-69
2021/09/15 05:13:25;;;;;;;27.52;17.48;;;11.80;99.90;;;;;;4416857;28;657503;-69
2021/09/15 05:16:13;;;;;;;26.40;17.58;;;11.90;99.90;;;;;;4394087;28;656637;-69
2021/09/15 05:19:02;;;;;;;28.93;19.07;;;12.10;99.90;;;;;;4416186;28;656507;-69
2021/09/15 05:21:49;;;;;;;31.80;21.40;;;12.30;99.90;;;;;;4389152;28;657397;-69
2021/09/15 05:24:37;;;;;;;41.27;23.63;;;12.50;99.90;;;;;;4403685;28;656476;-69
2021/09/15 05:27:24;;;;;;;37.33;23.50;;;12.70;99.90;;;;;;4420380;28;657688;-69
2021/09/15 05:30:13;;;;;;;34.10;22.20;;;13.00;99.90;;;;;;4397641;28;656415;-69
2021/09/15 05:33:06;;;;;;;33.57;22.20;;;13.10;99.90;;;;;;4416505;28;657230;-69
2021/09/15 05:36:04;;;;;;;35.60;19.93;;;13.30;99.90;;;;;;4370201;28;656954;-69
2021/09/15 05:38:52;;;;;;;34.67;19.27;;;13.50;99.90;;;;;;4383110;28;656576;-69
2021/09/15 05:41:39;;;;;;;29.27;18.97;;;13.50;99.90;;;;;;4420144;28;657623;-69
2021/09/15 05:44:27;;;;;;;34.83;20.73;;;13.60;99.90;;;;;;4397341;28;657076;-69
2021/09/15 05:47:15;;;;;;;33.73;19.77;;;13.80;99.90;;;;;;4419291;28;657379;-70
2021/09/15 05:50:03;;;;;;;33.27;19.97;;;14.00;99.90;;;;;;4397334;28;657057;-69
2021/09/15 05:52:52;;;;;;;30.77;19.87;;;14.10;99.90;;;;;;4416218;28;656993;-69
2021/09/15 05:55:39;;;;;;;32.37;20.13;;;14.20;99.90;;;;;;4393015;28;657075;-69
2021/09/15 05:58:27;;;;;;;37.20;21.10;;;14.40;99.90;;;;;;4394829;28;657502;-69
2021/09/15 06:01:19;;;;;;;33.77;19.37;;;14.50;99.90;;;;;;4414326;28;658683;-69
2021/09/15 06:04:13;;;;;;;30.77;19.93;;;14.60;99.90;;;;;;4385075;28;657753;-69
2021/09/15 06:07:07;;;;;;;33.47;19.63;;;14.80;99.90;;;;;;4391966;28;658374;-69
2021/09/15 06:10:02;;;;;;;32.30;20.50;;;14.90;99.90;;;;;;4365400;28;658469;-69
2021/09/15 06:12:55;;;;;;;30.33;18.97;;;15.00;99.90;;;;;;4386779;28;657376;-69
2021/09/15 06:15:50;;;;;;;34.00;18.67;;;15.10;99.90;;;;;;4370667;28;657859;-69
2021/09/15 06:18:42;;;;;;;34.03;18.13;;;15.30;99.90;;;;;;4369809;28;657633;-69
2021/09/15 06:21:33;;;;;;;32.23;18.20;;;15.40;99.90;;;;;;4390697;28;658753;-69
2021/09/15 06:24:28;;;;;;;32.93;18.00;;;15.50;99.90;;;;;;4391120;28;657491;-69
2021/09/15 06:27:29;;;;;;;28.50;17.17;;;15.60;99.90;;;;;;4390573;28;657554;-69
2021/09/15 06:30:18;;;;;;;26.23;17.33;;;15.70;99.90;;;;;;4386141;28;657465;-69
2021/09/15 06:33:10;;;;;;;27.00;17.07;;;15.90;99.90;;;;;;4412251;28;657274;-69
2021/09/15 06:36:12;;;;;;;27.67;17.50;;;16.00;99.90;;;;;;4393221;28;657378;-69
2021/09/15 06:39:10;;;;;;;27.73;17.92;;;16.20;99.90;;;;;;4390763;28;657375;-69
2021/09/15 06:42:02;;;;;;;26.83;17.03;;;16.30;99.90;;;;;;4394956;28;657314;-70
2021/09/15 06:45:01;;;;;;;25.10;16.53;;;16.40;99.90;;;;;;4394157;28;657957;-69
2021/09/15 06:47:52;;;;;;;25.60;16.37;;;16.50;99.90;;;;;;4370560;28;658328;-69
2021/09/15 06:50:44;;;;;;;25.50;15.33;;;16.60;99.90;;;;;;4393983;28;658536;-70
2021/09/15 06:53:41;;;;;;;29.73;16.60;;;16.80;99.90;;;;;;4375508;28;657514;-69
2021/09/15 06:56:29;;;;;;;26.20;15.30;;;16.90;99.90;;;;;;4397968;28;657784;-69
2021/09/15 06:59:18;;;;;;;24.70;15.47;;;17.10;99.90;;;;;;4401926;28;657753;-69
2021/09/15 07:02:08;;;;;;;31.77;16.47;;;17.20;99.90;;;;;;4416631;28;658131;-69
2021/09/15 07:04:59;;;;;;;29.70;16.90;;;17.30;97.60;;;;;;4393908;28;657556;-69
2021/09/15 07:07:47;;;;;;;28.20;15.80;;;17.50;98.50;;;;;;4374936;28;657505;-69
2021/09/15 07:10:37;;;;;;;24.23;15.97;;;17.60;96.50;;;;;;4431988;28;658832;-69
2021/09/15 07:13:28;;;;;;;27.73;15.43;;;17.80;96.80;;;;;;4411487;28;658932;-69
2021/09/15 07:16:16;;;;;;;23.90;15.23;;;18.00;95.50;;;;;;4411729;28;657515;-70
2021/09/15 07:19:05;;;;;;;21.50;13.93;;;18.20;93.30;;;;;;4416180;28;657373;-69
2021/09/15 07:21:52;;;;;;;23.00;13.93;;;18.40;87.60;;;;;;4415669;28;658533;-69
2021/09/15 07:24:40;;;;;;;24.17;13.00;;;18.50;78.00;;;;;;4434699;28;658389;-69
2021/09/15 07:27:27;;;;;;;23.10;12.30;;;18.60;60.60;;;;;;4415517;28;658160;-69
2021/09/15 07:30:15;;;;;;;21.40;13.20;;;18.80;47.90;;;;;;4434567;28;658819;-69
2021/09/15 07:33:03;;;;;;;19.40;12.40;;;18.90;45.00;;;;;;4415982;28;658268;-70
2021/09/15 07:35:52;;;;;;;23.00;13.03;;;19.00;31.40;;;;;;4434581;28;657828;-70
2021/09/15 07:38:40;;;;;;;23.67;14.40;;;19.10;32.90;;;;;;4411334;28;657923;-69
2021/09/15 07:41:27;;;;;;;19.93;13.73;;;19.30;24.70;;;;;;4415594;28;657799;-69
2021/09/15 07:44:15;;;;;;;21.23;13.20;;;19.30;99.90;;;;;;4434458;28;657830;-67
2021/09/15 07:47:03;;;;;;;20.87;14.23;;;19.40;99.90;;;;;;4415459;28;657562;-67
2021/09/15 07:49:51;;;;;;;20.73;13.17;;;19.40;99.90;;;;;;4434113;28;657469;-67
2021/09/15 07:52:40;;;;;;;18.00;12.67;;;19.60;99.90;;;;;;4415535;28;658468;-67
2021/09/15 07:55:27;;;;;;;19.30;13.33;;;19.70;99.90;;;;;;4407919;28;657998;-67
2021/09/15 07:58:15;;;;;;;18.60;13.20;;;19.90;99.90;;;;;;4433684;28;658279;-67
2021/09/15 08:01:02;;;;;;;19.03;13.30;;;20.00;99.90;;;;;;4414649;28;657753;-67
2021/09/15 08:03:51;;;;;;;20.73;12.53;;;20.10;99.90;;;;;;4429830;28;658323;-67
2021/09/15 08:06:39;;;;;;;21.30;12.90;;;20.30;99.90;;;;;;4415260;28;658217;-67
2021/09/15 08:09:29;;;;;;;19.17;12.27;;;20.40;99.90;;;;;;4420299;28;657869;-68
2021/09/15 08:12:16;;;;;;;20.40;11.97;;;20.60;99.90;;;;;;4415483;28;657823;-67
2021/09/15 08:15:04;;;;;;;17.43;12.20;;;20.70;99.90;;;;;;4392611;28;658418;-67
2021/09/15 08:17:52;;;;;;;19.20;11.97;;;20.70;99.90;;;;;;4392344;28;657314;-67
2021/09/15 08:20:45;;;;;;;19.13;11.57;;;21.00;99.90;;;;;;4415366;28;658969;-67
2021/09/15 08:23:32;;;;;;;15.93;11.60;;;21.30;99.90;;;;;;4396824;28;658114;-67
2021/09/15 08:26:22;;;;;;;15.87;11.47;;;21.40;99.90;;;;;;4415161;28;658174;-67
2021/09/15 08:29:09;;;;;;;18.53;11.43;;;21.40;99.90;;;;;;4391741;28;658220;-67
2021/09/15 08:31:57;;;;;;;17.05;11.65;;;21.60;99.90;;;;;;4399366;28;657674;-67
2021/09/15 08:34:44;;;;;;;20.67;11.40;;;21.90;99.90;;;;;;4419298;28;656906;-67
2021/09/15 08:37:35;;;;;;;16.53;11.53;;;22.10;99.90;;;;;;4396216;28;657502;-68
2021/09/15 08:40:23;;;;;;;17.23;11.60;;;22.40;99.90;;;;;;4396201;28;657500;-67
2021/09/15 08:43:12;;;;;;;16.57;11.33;;;22.60;99.90;;;;;;4415108;28;657990;-67
2021/09/15 08:45:59;;;;;;;15.93;10.77;;;22.70;99.90;;;;;;4396404;28;658331;-67
2021/09/15 08:48:47;;;;;;;14.33;10.17;;;22.60;99.90;;;;;;4400828;28;657645;-67
2021/09/15 08:51:35;;;;;;;24.53;11.77;;;22.90;99.90;;;;;;4415148;28;658316;-67
2021/09/15 08:54:23;;;;;;;16.87;10.93;;;23.20;99.90;;;;;;4396126;28;657927;-68
2021/09/15 08:57:10;;;;;;;17.70;10.83;;;23.40;99.90;;;;;;4414885;28;658614;-67
2021/09/15 08:59:59;;;;;;;21.90;11.07;;;23.60;99.90;;;;;;4396026;28;657554;-67
2021/09/15 09:02:48;;;;;;;17.33;10.57;;;23.90;99.90;;;;;;4395675;28;657667;-68
2021/09/15 09:05:36;;;;;;;15.60;10.77;;;23.90;99.90;;;;;;4413091;28;658225;-68
2021/09/15 09:08:24;;;;;;;14.70;10.43;;;24.10;99.90;;;;;;4395925;28;658008;-67
2021/09/15 09:11:12;;;;;;;20.63;10.98;;;24.10;99.90;;;;;;4405304;28;657792;-68
2021/09/15 09:14:01;;;;;;;16.80;10.10;;;24.30;99.90;;;;;;4415488;28;658198;-67
2021/09/15 09:16:51;;;;;;;13.10;9.73;;;24.50;99.90;;;;;;4396734;28;657558;-68
2021/09/15 09:19:39;;;;;;;15.32;9.60;;;24.90;99.90;;;;;;4398084;28;656544;-68
2021/09/15 09:22:27;;;;;;;14.90;10.00;;;24.90;99.90;;;;;;4412728;28;656405;-68
2021/09/15 09:25:20;;;;;;;14.68;9.57;;;25.20;99.90;;;;;;4415188;28;658136;-67
2021/09/15 09:28:24;;;;;;;16.58;9.85;;;25.40;99.90;;;;;;4397754;28;656507;-68
2021/09/15 09:31:13;;;;;;;13.90;9.35;;;25.20;99.90;;;;;;4382622;28;656807;-68
2021/09/15 09:34:04;;;;;;;18.52;11.95;;;25.40;99.90;;;;;;4416370;28;657221;-68
2021/09/15 09:37:03;;;;;;;18.98;10.70;;;25.70;99.90;;;;;;4373818;28;657471;-68
2021/09/15 09:39:52;;;;;;;20.45;10.95;;;25.90;99.90;;;;;;4387398;28;657560;-67
2021/09/15 09:42:40;;;;;;;14.73;10.27;;;26.10;99.90;;;;;;4392497;28;657873;-67
2021/09/15 09:45:28;;;;;;;18.02;10.32;;;26.30;99.90;;;;;;4396217;28;657676;-67
2021/09/15 09:48:33;;;;;;;12.68;9.27;;;26.30;99.90;;;;;;4409301;28;657216;-67
2021/09/15 09:51:41;;;;;;;13.40;9.23;;;26.40;99.90;;;;;;4391869;28;656673;-67
2021/09/15 09:54:29;;;;;;;14.55;9.15;;;26.50;99.90;;;;;;4370625;28;656875;-67
2021/09/15 09:57:17;;;;;;;13.73;8.82;;;26.70;99.90;;;;;;4408821;28;657324;-68
2021/09/15 10:00:05;;;;;;;9.63;7.53;;;26.80;99.90;;;;;;4415982;28;657928;-67
2021/09/15 10:02:53;;;;;;;13.82;8.23;;;26.70;99.90;;;;;;4394091;28;655468;-68
2021/09/15 10:05:41;;;;;;;14.63;8.88;;;26.80;99.90;;;;;;4415829;28;657162;-68
2021/09/15 10:08:30;;;;;;;14.55;8.60;;;27.10;99.90;;;;;;4397320;28;658333;-67
2021/09/15 10:11:17;;;;;;;13.25;8.38;;;27.00;99.90;;;;;;4406031;28;656381;-67
2021/09/15 10:14:06;;;;;;;15.05;8.65;;;27.20;99.90;;;;;;4432002;28;657886;-67
2021/09/15 10:17:09;;;;;;;11.73;8.18;;;27.30;99.90;;;;;;4414498;28;657077;-68
2021/09/15 10:20:06;;;;;;;15.00;8.80;;;27.20;99.90;;;;;;4402101;28;656753;-68
2021/09/15 10:22:59;;;;;;;14.18;8.27;;;27.20;99.90;;;;;;4387399;28;657055;-67
2021/09/15 10:25:51;;;;;;;19.25;7.97;;;27.20;99.90;;;;;;4391611;28;657068;-67
2021/09/15 10:29:18;;;;;;;12.30;7.80;;;27.30;99.90;;;;;;4414493;28;656966;-68
2021/09/15 10:32:11;;;;;;;11.70;7.32;;;27.40;98.90;;;;;;4410451;28;656180;-67
2021/09/15 10:35:03;;;;;;;10.63;7.65;;;27.60;99.60;;;;;;4414370;28;656959;-67
2021/09/15 10:37:53;;;;;;;14.95;7.40;;;28.00;98.20;;;;;;4410341;28;656704;-68
2021/09/15 10:40:49;;;;;;;17.67;8.05;;;27.80;94.00;;;;;;4398944;28;657401;-68
2021/09/15 10:43:50;;;;;;;11.23;7.57;;;27.70;96.80;;;;;;4414304;28;656293;-68
2021/09/15 10:46:37;;;;;;;11.00;8.00;;;27.90;97.00;;;;;;4412292;28;656420;-68
2021/09/15 10:49:45;;;;;;;13.20;7.55;;;27.80;96.10;;;;;;4433194;28;656969;-67
2021/09/15 10:52:37;;;;;;;11.95;7.00;;;28.00;96.00;;;;;;4387409;28;657527;-68
2021/09/15 10:55:25;;;;;;;14.90;7.97;;;28.30;94.90;;;;;;4409812;28;657248;-67
2021/09/15 10:58:14;;;;;;;9.85;7.32;;;28.00;94.10;;;;;;4413901;28;656389;-68
2021/09/15 11:01:08;;;;;;;10.70;7.28;;;28.10;92.90;;;;;;4415054;28;655715;-68
2021/09/15 11:03:57;;;;;;;9.60;6.47;;;28.30;95.40;;;;;;4410483;28;656676;-67
2021/09/15 11:06:48;;;;;;;11.52;6.43;;;28.50;93.30;;;;;;4408474;28;657427;-67
2021/09/15 11:09:40;;;;;;;12.27;7.50;;;28.50;92.10;;;;;;4402938;28;657386;-67
2021/09/15 11:12:47;;;;;;;9.70;6.68;;;28.70;93.20;;;;;;4372318;28;656574;-68
2021/09/15 11:15:42;;;;;;;12.57;6.35;;;29.00;92.10;;;;;;4396771;28;656149;-67
2021/09/15 11:18:36;;;;;;;10.90;6.20;;;29.50;89.50;;;;;;4384620;28;657533;-67
2021/09/15 11:21:31;;;;;;;7.63;5.53;;;30.00;87.90;;;;;;4369111;28;657475;-68
2021/09/15 11:24:25;;;;;;;7.88;5.55;;;30.00;84.60;;;;;;4370190;28;656570;-67
2021/09/15 11:27:15;;;;;;;12.13;5.45;;;30.20;83.00;;;;;;4369927;28;655970;-68
2021/09/15 11:30:02;;;;;;;7.90;5.25;;;30.20;81.20;;;;;;4395797;28;656548;-68
2021/09/15 11:32:51;;;;;;;8.80;5.47;;;30.20;79.80;;;;;;4415206;28;656107;-67
2021/09/15 11:35:40;;;;;;;6.85;5.20;;;30.50;80.70;;;;;;4396504;28;656263;-68
2021/09/15 11:38:28;;;;;;;9.38;4.45;;;30.30;77.40;;;;;;4400003;28;655552;-67
2021/09/15 11:41:17;;;;;;;7.93;4.90;;;29.70;72.40;;;;;;4418700;28;656390;-68
2021/09/15 11:44:04;;;;;;;9.10;4.95;;;29.80;75.80;;;;;;4395888;28;656888;-67
2021/09/15 11:46:52;;;;;;;8.35;5.13;;;30.20;77.40;;;;;;4399642;28;655957;-68
2021/09/15 11:49:41;;;;;;;9.07;4.85;;;30.40;77.60;;;;;;4422233;28;656175;-68
2021/09/15 11:52:29;;;;;;;6.70;4.93;;;30.40;74.80;;;;;;4399903;28;657238;-68
2021/09/15 11:55:17;;;;;;;7.57;4.60;;;30.60;72.20;;;;;;4418430;28;655186;-67
2021/09/15 11:58:05;;;;;;;5.78;4.38;;;31.30;74.30;;;;;;4395598;28;656340;-67
2021/09/15 12:00:53;;;;;;;5.53;4.23;;;31.80;68.80;;;;;;4399461;28;655330;-68
2021/09/15 12:03:40;;;;;;;10.48;4.65;;;32.00;66.80;;;;;;4417021;28;655809;-67
2021/09/15 12:06:29;;;;;;;7.13;4.70;;;31.40;67.30;;;;;;4396019;28;656280;-67
2021/09/15 12:09:17;;;;;;;8.38;4.95;;;31.30;67.80;;;;;;4399131;28;655587;-68
2021/09/15 12:12:09;;;;;;;9.90;4.63;;;31.00;66.10;;;;;;4436687;28;656376;-67
2021/09/15 12:14:58;;;;;;;7.95;4.38;;;31.20;68.40;;;;;;4394805;28;655734;-68
2021/09/15 12:17:54;;;;;;;6.13;4.63;;;31.00;67.90;;;;;;4436248;28;655590;-67
2021/09/15 12:20:42;;;;;;;5.85;4.60;;;31.60;64.80;;;;;;4413885;28;655281;-67
2021/09/15 12:23:35;;;;;;;6.40;4.80;;;32.10;65.90;;;;;;4406027;28;656098;-68
2021/09/15 12:26:26;;;;;;;8.48;4.72;;;32.30;64.00;;;;;;4413653;28;655581;-68
2021/09/15 12:29:14;;;;;;;8.60;5.35;;;32.60;62.80;;;;;;4417684;28;656538;-68
2021/09/15 12:32:02;;;;;;;6.00;4.90;;;32.50;64.50;;;;;;4416964;28;655588;-68
2021/09/15 12:34:50;;;;;;;6.60;4.80;;;32.10;62.70;;;;;;4439583;28;655467;-67
2021/09/15 12:37:38;;;;;;;8.32;5.07;;;31.80;64.10;;;;;;4417149;28;656018;-68
2021/09/15 12:40:27;;;;;;;5.95;4.15;;;31.50;62.80;;;;;;4435238;28;654968;-67
2021/09/15 12:43:17;;;;;;;7.80;4.90;;;31.70;64.90;;;;;;4413093;28;656549;-67
2021/09/15 12:46:05;;;;;;;7.43;5.07;;;31.80;64.20;;;;;;4412759;28;655930;-67
2021/09/15 12:48:52;;;;;;;12.38;4.72;;;31.70;62.80;;;;;;4416969;28;655496;-68
2021/09/15 12:51:40;;;;;;;6.68;4.68;;;31.40;63.90;;;;;;4428499;28;656823;-67
2021/09/15 12:54:28;;;;;;;7.55;4.55;;;31.30;62.90;;;;;;4412262;28;655105;-67
2021/09/15 12:57:18;;;;;;;6.50;4.63;;;31.50;63.90;;;;;;4435614;28;655201;-67
2021/09/15 13:00:20;;;;;;;6.60;4.32;;;32.00;63.30;;;;;;4412866;28;655839;-67
2021/09/15 13:03:16;;;;;;;7.82;4.63;;;32.30;63.70;;;;;;4391661;28;655592;-67
2021/09/15 13:06:09;;;;;;;9.27;4.95;;;32.40;60.70;;;;;;4389975;28;657209;-67
2021/09/15 13:08:58;;;;;;;7.57;4.85;;;32.20;61.00;;;;;;4394438;28;655792;-68
2021/09/15 13:12:00;;;;;;;7.47;4.30;;;32.10;61.40;;;;;;4418100;28;655307;-67
2021/09/15 13:15:06;;;;;;;9.20;4.88;;;32.00;60.90;;;;;;4411449;28;655682;-68
2021/09/15 13:18:06;;;;;;;6.03;4.40;;;32.50;61.30;;;;;;4392748;28;656095;-67
2021/09/15 13:21:05;;;;;;;9.80;4.55;;;32.30;61.40;;;;;;4393323;28;657169;-67
2021/09/15 13:23:57;;;;;;;6.53;4.87;;;32.00;59.70;;;;;;4393775;28;655362;-68
2021/09/15 13:26:57;;;;;;;6.68;4.88;;;31.40;61.20;;;;;;4412269;28;655812;-67
2021/09/15 13:29:48;;;;;;;7.07;4.72;;;31.10;63.40;;;;;;4406942;28;656727;-67
2021/09/15 13:32:37;;;;;;;11.82;4.80;;;31.20;63.30;;;;;;4412465;28;655732;-67
2021/09/15 13:35:25;;;;;;;9.03;5.10;;;31.00;62.20;;;;;;4414063;28;657070;-67
2021/09/15 13:38:12;;;;;;;11.05;4.95;;;31.10;62.40;;;;;;4416254;28;655662;-68
2021/09/15 13:41:00;;;;;;;5.22;4.47;;;31.10;63.30;;;;;;4433781;28;657297;-67
2021/09/15 13:43:48;;;;;;;7.05;4.55;;;30.80;64.10;;;;;;4416242;28;655758;-67
2021/09/15 13:46:35;;;;;;;8.20;4.80;;;30.50;65.00;;;;;;4434988;28;655857;-67
2021/09/15 13:49:24;;;;;;;6.85;4.82;;;31.00;65.00;;;;;;4416272;28;655706;-68
2021/09/15 13:52:13;;;;;;;7.18;5.10;;;31.30;65.30;;;;;;4416053;28;656068;-67
2021/09/15 13:55:01;;;;;;;6.32;4.82;;;31.10;63.30;;;;;;4429137;28;654915;-67
2021/09/15 13:57:49;;;;;;;7.20;4.75;;;31.00;64.30;;;;;;4403435;28;655317;-67
2021/09/15 14:00:36;;;;;;;9.02;4.30;;;30.90;64.20;;;;;;4434559;28;655712;-67
2021/09/15 14:03:24;;;;;;;9.20;4.82;;;30.80;65.10;;;;;;4416027;28;656468;-67
2021/09/15 14:06:13;;;;;;;7.28;4.43;;;31.00;64.80;;;;;;4428764;28;655461;-68
2021/09/15 14:09:01;;;;;;;6.57;5.13;;;31.40;64.00;;;;;;4434590;28;655566;-67
2021/09/15 14:11:49;;;;;;;7.65;5.20;;;31.40;64.00;;;;;;4389583;28;655393;-67
2021/09/15 14:14:37;;;;;;;8.85;4.95;;;30.90;65.60;;;;;;4414208;28;655862;-68
2021/09/15 14:17:25;;;;;;;7.57;5.28;;;30.80;65.00;;;;;;4417368;28;656294;-67
2021/09/15 14:20:12;;;;;;;12.43;5.30;;;30.80;66.00;;;;;;4398021;28;655928;-68
2021/09/15 14:23:01;;;;;;;9.20;5.20;;;30.50;66.00;;;;;;4415453;28;657913;-67